Andrews, SC

4:43 PM EDT on August 22, 2014 (GMT -0400)
Spring Gully | Change Station
CLOSE
Current Station
Personal Weather Station
Location: Georgetown, SC
Elevation: 20 ft
Nearby Weather Stations
Active Advisory: Heat Advisory

Elev 20 ft 33.38 °N, 79.42 °W | Updated 22 minutes ago

Scattered Clouds
Scattered Clouds
95.4 °F
Feels Like 111 °F
N
2.0
Wind Variable Wind from WNW
Gusts 2.0 mph

Today
High -- | Low -- °F
--% Chance of Precip.
Yesterday
High -- | Low -- °F
Precip. -- in
6:45 AM 7:56 PM
Waning Crescent, 7% visible
Pressure 29.95 in
Visibility 10.0 miles
Clouds Scattered Clouds 5500 ft
Scattered Clouds 7000 ft
Heat Index 111 °F
Dew Point 77 °F
Humidity 56%
Rainfall 0.00 in
Snow Depth Not available.
UV 5 out of 12
Pollen 7.80 out of 12
Air Quality Not available.
Flu Activity Not available.
METAR KGGE 222035Z AUTO 28004KT 10SM SCT055 SCT070 35/22 A2995 RMK AO2

More Conditions Fewer Conditions

Pressure 29.95 in
Visibility 10.0 miles
Clouds Scattered Clouds 5500 ft
Scattered Clouds 7000 ft
Heat Index 111 °F
Dew Point 77 °F
Humidity 56%
Rainfall 0.00 in
Snow Depth Not available.
UV 5 out of 12
Pollen 7.80 out of 12
Air Quality Not available.
Flu Activity Not available.
METAR KGGE 222035Z AUTO 28004KT 10SM SCT055 SCT070 35/22 A2995 RMK AO2

More Conditions Fewer Conditions

10-Day Weather Forecast

Almanac

Astronomy

Aug. 22, 2014 Rise Set
Actual Time 6:45 AM EDT 7:56 PM EDT
Civil Twilight 6:19 AM EDT 8:21 PM EDT
Nautical Twilight 5:48 AM EDT 8:52 PM EDT
Astronomical Twilight 5:17 AM EDT 9:24 PM EDT
Moon 4:10 AM EDT 6:00 PM EDT
Length of Visible Light 14h 02m
Length of Day
13h 10m
Tomorrow will be 1m 54s shorter.
Waning Crescent, 7% of the Moon is Illuminated
Today
Waning Crescent
Aug 25
New
Sep 2
First Quarter
Sep 8
Full
Sep 15
Last Quarter

Today's Extremes

State Highs State Lows

Community

WunderPhotos

Upload Photos

1,746,245 photos uploaded!

Nearby

Snow Depth

Station Depth Elevation
No new snow has been reported.

Earthquake Activity

City Distance Mag. Time & Date
No recent earthquake activity has been reported nearby.
Minimum magnitude displayed is 2.5.

Coastal Water Temperatures

Place Temperature
Springmaid Pier, SC 84.0 °F

Nearby Weather Stations